createdAt,value
2023-01-26T00:00:06.512Z,16.77
2023-01-26T00:02:30.482Z,17.02
2023-01-26T00:04:53.069Z,17.08
2023-01-26T00:07:15.641Z,16.73
2023-01-26T00:09:39.022Z,18.07
2023-01-26T00:12:01.660Z,17.58
2023-01-26T00:14:24.265Z,17.10
2023-01-26T00:16:47.193Z,16.13
2023-01-26T00:19:09.787Z,16.77
2023-01-26T00:21:32.695Z,16.47
2023-01-26T00:23:55.253Z,16.73
2023-01-26T00:26:25.810Z,15.02
2023-01-26T00:28:48.924Z,15.95
2023-01-26T00:31:23.297Z,16.17
2023-01-26T00:33:46.274Z,15.70
2023-01-26T00:36:10.045Z,15.57
2023-01-26T00:38:32.765Z,16.27
2023-01-26T00:40:55.522Z,16.10
2023-01-26T00:43:18.181Z,16.75
2023-01-26T00:45:40.930Z,17.27
2023-01-26T00:48:03.604Z,18.33
2023-01-26T00:50:27.733Z,17.48
2023-01-26T00:52:53.926Z,17.50
2023-01-26T00:55:20.577Z,18.10
2023-01-26T00:57:43.793Z,17.57
2023-01-26T01:00:16.878Z,16.67
2023-01-26T01:02:40.090Z,16.67
2023-01-26T01:05:02.829Z,17.10
2023-01-26T01:07:25.617Z,17.02
2023-01-26T01:09:50.468Z,17.27
2023-01-26T01:12:13.176Z,17.30
2023-01-26T01:14:35.833Z,17.85
2023-01-26T01:16:58.723Z,17.17
2023-01-26T01:19:22.032Z,17.75
2023-01-26T01:21:45.381Z,17.87
2023-01-26T01:24:08.235Z,18.42
2023-01-26T01:26:30.919Z,18.45
2023-01-26T01:28:55.864Z,17.30
2023-01-26T01:31:18.862Z,17.48
2023-01-26T01:33:41.737Z,18.00
2023-01-26T01:36:07.079Z,18.02
2023-01-26T01:38:29.740Z,17.52
2023-01-26T01:40:54.172Z,17.80
2023-01-26T01:43:16.889Z,18.27
2023-01-26T01:45:47.458Z,17.40
2023-01-26T01:48:25.338Z,17.83
2023-01-26T01:50:50.014Z,17.63
2023-01-26T01:53:17.501Z,17.85
2023-01-26T01:55:41.183Z,17.92
2023-01-26T01:58:04.733Z,16.77
2023-01-26T02:00:27.965Z,17.30
2023-01-26T02:03:19.318Z,17.08
2023-01-26T02:05:55.350Z,16.40
2023-01-26T02:08:20.002Z,17.73
2023-01-26T02:10:47.525Z,16.37
2023-01-26T02:13:11.487Z,17.83
2023-01-26T02:15:34.585Z,17.35
2023-01-26T02:18:03.460Z,16.85
2023-01-26T02:20:35.627Z,18.42
2023-01-26T02:23:22.215Z,17.10
2023-01-26T02:25:54.042Z,17.52
2023-01-26T02:28:18.283Z,17.13
2023-01-26T02:30:41.453Z,17.35
2023-01-26T02:33:04.323Z,16.65
2023-01-26T02:35:28.861Z,16.07
2023-01-26T02:37:51.568Z,16.35
2023-01-26T02:40:25.390Z,17.23
2023-01-26T02:42:48.317Z,16.48
2023-01-26T02:45:16.390Z,16.55
2023-01-26T02:47:41.325Z,16.63
2023-01-26T02:50:05.252Z,16.88
2023-01-26T02:52:33.578Z,15.45
2023-01-26T02:55:22.687Z,16.40
2023-01-26T02:57:47.022Z,15.98
2023-01-26T03:00:17.620Z,15.97
2023-01-26T03:02:41.305Z,16.20
2023-01-26T03:05:04.813Z,16.23
2023-01-26T03:07:27.652Z,16.15
2023-01-26T03:09:51.422Z,16.50
2023-01-26T03:12:14.358Z,16.27
2023-01-26T03:14:37.012Z,16.25
2023-01-26T03:16:59.959Z,15.82
2023-01-26T03:19:41.637Z,16.08
2023-01-26T03:22:23.756Z,16.05
2023-01-26T03:25:05.201Z,15.97
2023-01-26T03:27:30.402Z,15.43
2023-01-26T03:30:00.190Z,16.23
2023-01-26T03:32:23.560Z,16.75
2023-01-26T03:34:47.292Z,15.85
2023-01-26T03:37:10.423Z,16.33
2023-01-26T03:40:02.129Z,15.70
2023-01-26T03:42:45.409Z,16.65
2023-01-26T03:45:27.324Z,16.02
2023-01-26T03:48:09.478Z,16.38
2023-01-26T03:50:51.539Z,15.87
2023-01-26T03:53:41.690Z,15.43
2023-01-26T03:56:24.873Z,15.60
2023-01-26T03:58:56.309Z,16.25
2023-01-26T04:01:26.467Z,16.30
2023-01-26T04:04:09.488Z,15.97
2023-01-26T04:06:52.601Z,15.75
2023-01-26T04:09:15.406Z,15.95
2023-01-26T04:11:38.433Z,16.30
2023-01-26T04:14:19.360Z,14.55
2023-01-26T04:17:00.618Z,15.37
2023-01-26T04:19:41.973Z,15.52
2023-01-26T04:22:04.932Z,15.38
2023-01-26T04:24:30.068Z,14.48
2023-01-26T04:26:53.716Z,14.95
2023-01-26T04:29:24.104Z,14.87
2023-01-26T04:31:47.184Z,13.50
2023-01-26T04:34:15.486Z,14.30
2023-01-26T04:36:39.407Z,13.35
2023-01-26T04:39:02.033Z,14.55
2023-01-26T04:41:25.085Z,13.53
2023-01-26T04:43:55.882Z,14.23
2023-01-26T04:46:19.653Z,14.95
2023-01-26T04:48:43.100Z,15.38
2023-01-26T04:51:12.671Z,14.68
2023-01-26T04:53:35.720Z,14.80
2023-01-26T04:55:58.611Z,13.85
2023-01-26T04:58:21.924Z,14.32
2023-01-26T05:00:45.545Z,15.90
2023-01-26T05:03:10.333Z,15.65
2023-01-26T05:05:37.747Z,15.50
2023-01-26T05:08:00.479Z,14.45
2023-01-26T05:10:26.683Z,15.90
2023-01-26T05:12:54.902Z,15.15
2023-01-26T05:15:23.589Z,14.70
2023-01-26T05:18:15.509Z,14.70
2023-01-26T05:20:57.559Z,14.73
2023-01-26T05:23:26.575Z,14.27
2023-01-26T05:26:01.106Z,14.43
2023-01-26T05:28:25.383Z,13.60
2023-01-26T05:30:48.378Z,13.33
2023-01-26T05:33:11.758Z,13.63
2023-01-26T05:35:35.175Z,13.77
2023-01-26T05:37:59.463Z,14.00
2023-01-26T05:40:26.200Z,13.98
2023-01-26T05:42:49.175Z,13.87
2023-01-26T05:45:37.846Z,13.15
2023-01-26T05:48:00.848Z,14.38
2023-01-26T05:50:23.865Z,13.60
2023-01-26T05:53:06.807Z,13.13
2023-01-26T05:55:32.556Z,12.97
2023-01-26T05:57:55.528Z,12.23
2023-01-26T06:00:18.868Z,13.40
2023-01-26T06:02:51.529Z,12.70
2023-01-26T06:05:14.642Z,12.40
2023-01-26T06:07:40.214Z,12.83
2023-01-26T06:10:16.035Z,10.93
2023-01-26T06:13:01.021Z,11.80
2023-01-26T06:15:50.013Z,11.38
2023-01-26T06:18:12.868Z,11.80
2023-01-26T06:20:40.787Z,10.47
2023-01-26T06:23:05.629Z,11.35
2023-01-26T06:25:30.732Z,11.68
2023-01-26T06:27:57.995Z,11.60
2023-01-26T06:30:24.481Z,11.65
2023-01-26T06:32:47.877Z,12.07
2023-01-26T06:35:10.888Z,12.13
2023-01-26T06:37:35.676Z,12.07
2023-01-26T06:39:58.892Z,12.65
2023-01-26T06:42:21.539Z,12.95
2023-01-26T06:44:44.272Z,12.97
2023-01-26T06:47:07.872Z,12.50
2023-01-26T06:49:31.531Z,12.82
2023-01-26T06:52:03.139Z,13.10
2023-01-26T06:54:42.373Z,12.38
2023-01-26T06:57:23.774Z,12.60
2023-01-26T07:00:29.844Z,13.63
2023-01-26T07:03:11.061Z,12.50
2023-01-26T07:05:33.896Z,12.57
2023-01-26T07:07:56.758Z,12.63
2023-01-26T07:10:21.354Z,13.47
2023-01-26T07:12:46.031Z,14.27
2023-01-26T07:15:10.333Z,15.70
2023-01-26T07:17:33.065Z,16.40
2023-01-26T07:19:56.815Z,15.80
2023-01-26T07:22:20.033Z,16.07
2023-01-26T07:24:42.971Z,18.08
2023-01-26T07:27:05.853Z,18.02
2023-01-26T07:29:28.664Z,18.35
2023-01-26T07:31:51.576Z,16.45
2023-01-26T07:34:14.478Z,14.63
2023-01-26T07:36:37.183Z,14.20
2023-01-26T07:38:59.818Z,14.82
2023-01-26T07:41:22.528Z,14.27
2023-01-26T07:43:45.608Z,14.70
2023-01-26T07:46:10.551Z,17.03
2023-01-26T07:48:34.429Z,17.58
2023-01-26T07:51:00.178Z,15.60
2023-01-26T07:53:23.262Z,14.27
2023-01-26T07:55:47.002Z,14.27
2023-01-26T07:58:10.659Z,14.13
2023-01-26T08:00:33.721Z,13.32
2023-01-26T08:02:56.952Z,13.85
2023-01-26T08:05:20.148Z,14.60
2023-01-26T08:07:46.398Z,14.48
2023-01-26T08:10:11.171Z,13.67
2023-01-26T08:12:40.867Z,14.55
2023-01-26T08:15:04.414Z,12.05
2023-01-26T08:17:29.304Z,11.95
2023-01-26T08:19:52.700Z,13.27
2023-01-26T08:22:15.908Z,11.67
2023-01-26T08:24:38.744Z,11.38
2023-01-26T08:27:01.381Z,10.52
2023-01-26T08:29:26.861Z,10.90
2023-01-26T08:31:49.962Z,10.77
2023-01-26T08:34:12.704Z,10.80
2023-01-26T08:36:35.498Z,10.10
2023-01-26T08:38:58.440Z,10.15
2023-01-26T08:41:21.247Z,10.70
2023-01-26T08:43:44.001Z,10.13
2023-01-26T08:46:07.200Z,8.57
2023-01-26T08:48:31.287Z,9.27
2023-01-26T08:50:55.607Z,10.70
2023-01-26T08:53:18.603Z,9.50
2023-01-26T08:55:41.328Z,9.95
2023-01-26T08:58:04.131Z,9.67
2023-01-26T09:00:28.101Z,9.82
2023-01-26T09:02:51.913Z,9.02
2023-01-26T09:05:15.036Z,10.13
2023-01-26T09:07:37.696Z,9.45
2023-01-26T09:10:00.584Z,9.83
2023-01-26T09:12:23.295Z,9.52
2023-01-26T09:14:45.924Z,9.43
2023-01-26T09:17:08.919Z,9.40
2023-01-26T09:19:31.946Z,9.52
2023-01-26T09:21:55.251Z,9.27
2023-01-26T09:24:18.036Z,10.45
2023-01-26T09:26:41.086Z,10.07
2023-01-26T09:29:04.171Z,9.77
2023-01-26T09:31:27.182Z,10.38
2023-01-26T09:33:51.152Z,10.30
2023-01-26T09:36:13.881Z,10.45
2023-01-26T09:38:37.263Z,11.15
2023-01-26T09:41:24.249Z,10.65
2023-01-26T09:43:57.419Z,11.05
2023-01-26T09:46:26.229Z,11.67
2023-01-26T09:49:11.722Z,10.68
2023-01-26T09:51:45.123Z,9.55
2023-01-26T09:54:35.620Z,10.57
2023-01-26T09:57:02.423Z,9.55
2023-01-26T09:59:38.435Z,10.80
2023-01-26T10:02:13.364Z,10.60
2023-01-26T10:04:39.487Z,10.65
2023-01-26T10:07:15.882Z,10.90
2023-01-26T10:09:47.549Z,10.57
2023-01-26T10:12:32.028Z,11.17
2023-01-26T10:15:39.974Z,12.35
2023-01-26T10:18:07.911Z,11.35
2023-01-26T10:20:42.379Z,11.25
2023-01-26T10:23:21.919Z,11.30
2023-01-26T10:25:48.626Z,11.13
2023-01-26T10:28:18.834Z,12.38
2023-01-26T10:30:43.988Z,11.10
2023-01-26T10:33:18.953Z,11.73
2023-01-26T10:35:41.791Z,12.02
2023-01-26T10:38:24.390Z,11.90
2023-01-26T10:40:47.408Z,11.85
2023-01-26T10:43:18.744Z,12.00
2023-01-26T10:45:46.784Z,12.27
2023-01-26T10:48:09.772Z,12.15
2023-01-26T10:50:33.250Z,11.30
2023-01-26T10:53:04.171Z,12.40
2023-01-26T10:55:28.431Z,12.13
2023-01-26T10:57:51.934Z,11.73
2023-01-26T11:00:30.480Z,12.25
2023-01-26T11:03:13.904Z,12.43
2023-01-26T11:05:36.711Z,12.43
2023-01-26T11:08:00.558Z,12.32
2023-01-26T11:10:26.966Z,13.00
2023-01-26T11:13:20.303Z,11.18
2023-01-26T11:15:47.720Z,12.27
2023-01-26T11:18:30.555Z,11.82
2023-01-26T11:20:56.732Z,12.80
2023-01-26T11:23:37.996Z,12.25
2023-01-26T11:26:34.552Z,12.68
2023-01-26T11:29:40.200Z,12.50
2023-01-26T11:32:08.938Z,13.05
2023-01-26T11:35:10.282Z,12.52
2023-01-26T11:37:44.064Z,12.32
2023-01-26T11:40:22.546Z,12.30
2023-01-26T11:43:17.895Z,12.70
2023-01-26T11:45:59.212Z,13.70
2023-01-26T11:48:45.240Z,12.63
2023-01-26T11:51:27.199Z,13.43
2023-01-26T11:54:19.834Z,13.70
2023-01-26T11:57:05.572Z,12.90
2023-01-26T11:59:36.654Z,13.75
2023-01-26T12:02:05.742Z,13.48
2023-01-26T12:04:31.783Z,13.90
2023-01-26T12:07:23.188Z,13.93
2023-01-26T12:09:48.470Z,14.03
2023-01-26T12:12:17.171Z,13.70
2023-01-26T12:15:00.111Z,12.98
2023-01-26T12:17:47.297Z,13.25
2023-01-26T12:20:49.164Z,14.52
2023-01-26T12:23:20.512Z,14.30
2023-01-26T12:25:49.364Z,14.60
2023-01-26T12:28:38.150Z,14.57
2023-01-26T12:31:29.797Z,15.50
2023-01-26T12:33:55.848Z,14.63
2023-01-26T12:36:28.256Z,14.57
2023-01-26T12:38:58.243Z,15.60
2023-01-26T12:42:01.129Z,16.17
2023-01-26T12:44:29.591Z,15.90
2023-01-26T12:46:57.109Z,15.77
2023-01-26T12:49:30.381Z,16.23
2023-01-26T12:52:06.762Z,16.10
2023-01-26T12:54:47.710Z,15.70
2023-01-26T12:57:17.996Z,16.30
2023-01-26T12:59:48.007Z,15.20
2023-01-26T13:02:28.549Z,15.37
2023-01-26T13:04:52.010Z,14.52
2023-01-26T13:07:40.391Z,15.45
2023-01-26T13:10:16.484Z,16.02
2023-01-26T13:12:54.713Z,15.68
2023-01-26T13:15:24.199Z,15.17
2023-01-26T13:17:57.475Z,15.80
2023-01-26T13:20:21.812Z,16.67
2023-01-26T13:22:44.584Z,16.17
2023-01-26T13:25:18.762Z,15.73
2023-01-26T13:27:56.961Z,13.77
2023-01-26T13:30:22.741Z,15.57
2023-01-26T13:33:27.886Z,16.15
2023-01-26T13:35:53.900Z,14.55
2023-01-26T13:38:19.466Z,14.00
2023-01-26T13:40:46.453Z,12.87
2023-01-26T13:43:29.281Z,13.77
2023-01-26T13:46:17.615Z,13.32
2023-01-26T13:48:42.531Z,12.73
2023-01-26T13:51:07.826Z,11.98
2023-01-26T13:53:33.500Z,12.27
2023-01-26T13:55:59.721Z,12.70
2023-01-26T13:58:23.548Z,12.20
2023-01-26T14:01:19.311Z,12.80
2023-01-26T14:03:42.962Z,12.63
2023-01-26T14:06:22.691Z,13.57
2023-01-26T14:08:53.043Z,12.45
2023-01-26T14:11:19.763Z,13.05
2023-01-26T14:13:42.800Z,12.43
2023-01-26T14:16:07.149Z,12.70
2023-01-26T14:18:30.021Z,12.63
2023-01-26T14:21:06.927Z,13.02
2023-01-26T14:23:34.342Z,12.90
2023-01-26T14:26:17.693Z,13.50
2023-01-26T14:28:43.119Z,13.30
2023-01-26T14:31:22.477Z,12.97
2023-01-26T14:33:45.477Z,12.80
2023-01-26T14:36:15.625Z,12.50
2023-01-26T14:38:44.659Z,12.85
2023-01-26T14:41:14.507Z,11.93
2023-01-26T14:43:37.231Z,12.43
2023-01-26T14:46:17.136Z,12.20
2023-01-26T14:48:46.341Z,12.13
2023-01-26T14:51:25.348Z,12.43
2023-01-26T14:53:57.603Z,13.18
2023-01-26T14:56:23.632Z,12.67
2023-01-26T14:58:51.243Z,12.10
2023-01-26T15:01:22.145Z,12.32
2023-01-26T15:03:45.399Z,13.18
2023-01-26T15:06:20.450Z,14.30
2023-01-26T15:09:12.738Z,13.37
2023-01-26T15:11:56.857Z,13.45
2023-01-26T15:14:32.152Z,12.50
2023-01-26T15:16:54.878Z,14.30
2023-01-26T15:19:23.984Z,13.75
2023-01-26T15:21:47.161Z,13.00
2023-01-26T15:24:14.919Z,13.30
2023-01-26T15:26:38.428Z,11.77
2023-01-26T15:29:04.647Z,13.95
2023-01-26T15:31:36.656Z,13.57
2023-01-26T15:34:01.743Z,13.40
2023-01-26T15:36:28.821Z,14.10
2023-01-26T15:39:15.377Z,13.50
2023-01-26T15:41:39.059Z,13.75
2023-01-26T15:44:01.603Z,13.27
2023-01-26T15:46:24.356Z,14.67
2023-01-26T15:48:47.021Z,14.13
2023-01-26T15:51:16.106Z,13.35
2023-01-26T15:53:39.371Z,13.38
2023-01-26T15:56:02.383Z,14.18
2023-01-26T15:58:26.021Z,13.40
2023-01-26T16:00:49.617Z,14.90
2023-01-26T16:03:16.173Z,14.57
2023-01-26T16:05:38.919Z,14.52
2023-01-26T16:08:01.579Z,14.45
2023-01-26T16:10:24.336Z,14.97
2023-01-26T16:12:49.637Z,15.32
2023-01-26T16:15:39.607Z,16.48
2023-01-26T16:18:02.387Z,16.30
2023-01-26T16:20:25.137Z,15.18
2023-01-26T16:22:47.991Z,16.37
2023-01-26T16:25:30.842Z,16.40
2023-01-26T16:27:54.952Z,17.45
2023-01-26T16:30:18.349Z,16.85
2023-01-26T16:32:42.551Z,17.30
2023-01-26T16:35:13.421Z,17.10
2023-01-26T16:37:36.461Z,14.38
2023-01-26T16:40:00.324Z,16.13
2023-01-26T16:42:23.093Z,15.90
2023-01-26T16:44:46.347Z,16.13
2023-01-26T16:47:10.584Z,14.77
2023-01-26T16:49:34.006Z,17.05
2023-01-26T16:51:56.719Z,16.27
2023-01-26T16:54:19.255Z,15.95
2023-01-26T16:56:42.385Z,16.73
2023-01-26T16:59:06.120Z,17.53
2023-01-26T17:01:33.748Z,18.60
2023-01-26T17:03:56.718Z,17.65
2023-01-26T17:06:20.430Z,15.95
2023-01-26T17:08:43.634Z,17.20
2023-01-26T17:11:07.095Z,15.73
2023-01-26T17:13:29.954Z,15.35
2023-01-26T17:15:52.628Z,14.70
2023-01-26T17:18:15.658Z,15.02
2023-01-26T17:20:39.324Z,17.05
2023-01-26T17:23:02.013Z,17.60
2023-01-26T17:25:24.891Z,17.25
2023-01-26T17:27:49.883Z,16.98
2023-01-26T17:30:12.896Z,16.17
2023-01-26T17:32:35.777Z,16.45
2023-01-26T17:34:58.573Z,16.20
2023-01-26T17:37:23.283Z,15.60
2023-01-26T17:39:46.211Z,15.95
2023-01-26T17:42:08.967Z,16.00
2023-01-26T17:44:31.614Z,16.48
2023-01-26T17:46:54.214Z,15.90
2023-01-26T17:49:17.066Z,17.75
2023-01-26T17:51:39.762Z,17.85
2023-01-26T17:54:02.645Z,17.38
2023-01-26T17:56:26.338Z,18.90
2023-01-26T17:58:50.843Z,18.30
2023-01-26T18:01:13.703Z,14.98
2023-01-26T18:03:41.252Z,14.38
2023-01-26T18:06:04.275Z,13.82
2023-01-26T18:08:27.631Z,14.43
2023-01-26T18:10:50.775Z,13.70
2023-01-26T18:13:14.409Z,13.90
2023-01-26T18:15:37.509Z,14.02
2023-01-26T18:18:00.119Z,14.35
2023-01-26T18:20:23.334Z,14.15
2023-01-26T18:22:46.374Z,13.80
2023-01-26T18:25:09.569Z,13.65
2023-01-26T18:27:32.281Z,14.13
2023-01-26T18:29:55.381Z,12.57
2023-01-26T18:32:18.601Z,12.00
2023-01-26T18:34:43.488Z,11.57
2023-01-26T18:37:06.109Z,11.85
2023-01-26T18:39:29.076Z,15.82
2023-01-26T18:41:52.821Z,11.90
2023-01-26T18:44:15.712Z,11.70
2023-01-26T18:46:39.110Z,11.77
2023-01-26T18:49:03.165Z,11.65
2023-01-26T18:51:27.566Z,12.93
2023-01-26T18:53:50.339Z,11.25
2023-01-26T18:56:15.461Z,11.65
2023-01-26T18:58:39.646Z,11.23
2023-01-26T19:01:05.817Z,11.65
2023-01-26T19:03:28.839Z,11.88
2023-01-26T19:05:52.407Z,11.73
2023-01-26T19:08:15.604Z,12.02
2023-01-26T19:10:38.986Z,12.80
2023-01-26T19:13:01.597Z,12.88
2023-01-26T19:15:24.506Z,11.60
2023-01-26T19:17:47.319Z,11.63
2023-01-26T19:20:13.615Z,11.93
2023-01-26T19:22:36.769Z,12.43
2023-01-26T19:24:59.715Z,12.23
2023-01-26T19:27:22.563Z,13.07
2023-01-26T19:29:45.692Z,12.00
2023-01-26T19:32:08.801Z,10.45
2023-01-26T19:34:32.292Z,11.53
2023-01-26T19:36:55.037Z,11.63
2023-01-26T19:39:17.877Z,10.52
2023-01-26T19:41:41.019Z,10.43
2023-01-26T19:44:04.071Z,10.65
2023-01-26T19:46:27.976Z,10.70
2023-01-26T19:48:50.956Z,11.05
2023-01-26T19:51:15.331Z,10.40
2023-01-26T19:53:41.298Z,10.00
2023-01-26T19:56:10.475Z,12.38
2023-01-26T19:58:34.612Z,11.10
2023-01-26T20:00:59.773Z,12.13
2023-01-26T20:03:24.437Z,12.10
2023-01-26T20:05:47.056Z,11.68
2023-01-26T20:08:10.066Z,10.85
2023-01-26T20:10:33.069Z,11.57
2023-01-26T20:12:57.789Z,11.13
2023-01-26T20:15:20.660Z,10.13
2023-01-26T20:17:44.193Z,10.40
2023-01-26T20:20:08.250Z,10.68
2023-01-26T20:22:34.186Z,10.33
2023-01-26T20:24:59.030Z,8.77
2023-01-26T20:27:22.248Z,10.48
2023-01-26T20:29:45.081Z,9.95
2023-01-26T20:32:08.718Z,9.63
2023-01-26T20:34:31.573Z,9.80
2023-01-26T20:37:00.224Z,8.85
2023-01-26T20:39:24.770Z,8.98
2023-01-26T20:41:47.656Z,9.27
2023-01-26T20:44:10.996Z,9.52
2023-01-26T20:46:37.609Z,9.10
2023-01-26T20:49:00.925Z,9.68
2023-01-26T20:51:29.592Z,9.63
2023-01-26T20:53:52.676Z,10.70
2023-01-26T20:56:16.397Z,9.75
2023-01-26T20:58:40.026Z,9.40
2023-01-26T21:01:08.203Z,9.93
2023-01-26T21:03:31.415Z,9.40
2023-01-26T21:05:54.376Z,10.25
2023-01-26T21:08:17.207Z,9.40
2023-01-26T21:10:40.747Z,9.43
2023-01-26T21:13:03.314Z,8.73
2023-01-26T21:15:26.110Z,8.32
2023-01-26T21:17:48.720Z,9.43
2023-01-26T21:20:14.069Z,9.23
2023-01-26T21:22:37.008Z,7.10
2023-01-26T21:24:59.716Z,6.88
2023-01-26T21:27:22.329Z,8.85
2023-01-26T21:29:45.000Z,8.57
2023-01-26T21:32:08.028Z,8.48
2023-01-26T21:34:30.932Z,9.40
2023-01-26T21:36:53.701Z,8.93
2023-01-26T21:39:16.687Z,8.68
2023-01-26T21:41:57.226Z,9.15
2023-01-26T21:44:22.597Z,9.38
2023-01-26T21:46:46.968Z,8.97
2023-01-26T21:49:10.352Z,9.35
2023-01-26T21:51:51.918Z,9.77
2023-01-26T21:54:15.125Z,10.20
2023-01-26T21:56:37.813Z,9.80
2023-01-26T21:59:04.650Z,10.00
2023-01-26T22:01:28.061Z,10.77
2023-01-26T22:03:54.131Z,11.95
2023-01-26T22:06:17.777Z,12.95
2023-01-26T22:08:40.731Z,11.60
2023-01-26T22:11:03.404Z,11.07
2023-01-26T22:13:26.375Z,12.23
2023-01-26T22:15:53.718Z,11.48
2023-01-26T22:18:20.250Z,9.63
2023-01-26T22:20:43.428Z,9.32
2023-01-26T22:23:15.006Z,10.60
2023-01-26T22:25:38.786Z,10.60
2023-01-26T22:28:01.680Z,10.15
2023-01-26T22:30:24.508Z,9.50
2023-01-26T22:32:47.225Z,11.00
2023-01-26T22:35:10.069Z,11.03
2023-01-26T22:37:32.708Z,11.38
2023-01-26T22:39:55.616Z,12.40
2023-01-26T22:42:19.379Z,11.15
2023-01-26T22:44:42.541Z,11.45
2023-01-26T22:47:05.275Z,11.53
2023-01-26T22:49:27.987Z,11.32
2023-01-26T22:51:50.480Z,11.35
2023-01-26T22:54:13.102Z,11.75
2023-01-26T22:56:35.635Z,12.70
2023-01-26T22:59:00.626Z,11.97
2023-01-26T23:01:23.841Z,12.10
2023-01-26T23:03:50.796Z,12.90
2023-01-26T23:06:14.921Z,13.07
2023-01-26T23:08:37.543Z,12.45
2023-01-26T23:11:13.470Z,13.17
2023-01-26T23:13:36.429Z,12.88
2023-01-26T23:15:59.515Z,14.35
2023-01-26T23:18:22.271Z,12.70
2023-01-26T23:20:44.840Z,13.90
2023-01-26T23:23:07.551Z,12.97
2023-01-26T23:25:48.305Z,14.18
2023-01-26T23:28:10.896Z,12.93
2023-01-26T23:30:33.616Z,13.25
2023-01-26T23:32:56.493Z,13.50
2023-01-26T23:35:19.186Z,14.50
2023-01-26T23:37:41.875Z,14.30
2023-01-26T23:40:05.326Z,13.75
2023-01-26T23:42:28.240Z,13.60
2023-01-26T23:44:51.103Z,13.20
2023-01-26T23:47:13.949Z,12.77
2023-01-26T23:52:20.239Z,13.10
2023-01-26T23:54:42.829Z,13.30
2023-01-26T23:57:05.496Z,13.27
2023-01-26T23:59:28.041Z,13.80
